Time;durP1;ratioP1;P1;durP2;ratioP2;P2;SDS_P1;SDS_P2;PMS_P1;PMS_P2;Temp;Humidity;BMP_temperature;BMP_pressure;BME280_temperature;BME280_humidity;BME280_pressure;Samples;Min_cycle;Max_cycle;Signal;HPM_P1;HPM_P2
2021/12/31 00:00:49;;;;;;;85.70;34.53;;;-3.20;99.90;;;;;;5092203;28;20321;-62
2021/12/31 00:03:16;;;;;;;90.03;38.47;;;-3.20;99.90;;;;;;5092121;28;20233;-63
2021/12/31 00:05:43;;;;;;;81.60;33.57;;;-3.10;99.90;;;;;;5092035;28;20255;-63
2021/12/31 00:08:08;;;;;;;91.00;35.37;;;-3.10;99.90;;;;;;5092526;28;20218;-63
2021/12/31 00:10:34;;;;;;;95.17;36.73;;;-3.00;99.90;;;;;;5092062;28;20216;-63
2021/12/31 00:13:00;;;;;;;88.70;35.70;;;-3.00;99.90;;;;;;5091894;28;20184;-62
2021/12/31 00:15:26;;;;;;;84.80;34.57;;;-3.00;99.90;;;;;;5092104;28;20183;-62
2021/12/31 00:17:51;;;;;;;80.70;33.73;;;-2.80;99.90;;;;;;5092037;28;20223;-62
2021/12/31 00:20:21;;;;;;;81.00;33.40;;;-2.80;99.90;;;;;;5091618;28;20539;-62
2021/12/31 00:23:07;;;;;;;86.50;39.33;;;-2.90;99.90;;;;;;5090799;28;20223;-62
2021/12/31 00:25:35;;;;;;;86.80;36.50;;;-2.80;99.90;;;;;;5092163;28;20167;-62
2021/12/31 00:28:01;;;;;;;87.63;35.03;;;-2.80;99.90;;;;;;5092214;28;20187;-62
2021/12/31 00:30:28;;;;;;;77.30;33.03;;;-2.70;99.90;;;;;;5074693;28;20188;-62
2021/12/31 00:32:53;;;;;;;93.97;36.90;;;-2.60;99.90;;;;;;5071642;28;20613;-62
2021/12/31 00:35:19;;;;;;;82.17;31.50;;;-2.60;99.90;;;;;;5070838;28;20225;-62
2021/12/31 00:37:45;;;;;;;82.03;33.93;;;-2.60;99.90;;;;;;5071492;28;20208;-62
2021/12/31 00:40:16;;;;;;;82.60;33.03;;;-2.60;99.90;;;;;;5081380;28;20716;-62
2021/12/31 00:42:43;;;;;;;80.90;34.30;;;-2.60;99.90;;;;;;5091608;28;20721;-62
2021/12/31 00:45:12;;;;;;;80.10;32.57;;;-2.50;99.90;;;;;;5091529;28;20292;-62
2021/12/31 00:47:38;;;;;;;67.20;27.90;;;-2.40;99.90;;;;;;5091808;28;20276;-62
2021/12/31 00:50:05;;;;;;;74.77;29.03;;;-2.40;99.90;;;;;;5090390;28;20203;-62
2021/12/31 00:52:31;;;;;;;71.40;29.13;;;-2.40;99.90;;;;;;5091677;28;20183;-63
2021/12/31 00:54:56;;;;;;;66.33;28.10;;;-2.40;99.90;;;;;;5091708;28;20176;-62
2021/12/31 00:57:22;;;;;;;72.33;31.67;;;-2.30;99.90;;;;;;5091541;28;20200;-62
2021/12/31 00:59:48;;;;;;;63.50;27.47;;;-2.30;99.90;;;;;;5091847;28;20693;-62
2021/12/31 01:02:16;;;;;;;72.50;28.87;;;-2.30;99.90;;;;;;5091546;28;20206;-63
2021/12/31 01:04:42;;;;;;;70.47;31.10;;;-2.30;99.90;;;;;;5091437;28;20173;-62
2021/12/31 01:07:08;;;;;;;62.67;26.83;;;-2.40;99.90;;;;;;5091425;28;20178;-62
2021/12/31 01:09:35;;;;;;;80.23;31.90;;;-2.50;99.90;;;;;;5091530;28;20196;-62
2021/12/31 01:12:01;;;;;;;72.87;31.67;;;-2.50;99.90;;;;;;5091255;28;20311;-63
2021/12/31 01:14:35;;;;;;;81.57;30.60;;;-2.50;99.90;;;;;;5091550;28;20305;-63
2021/12/31 01:17:04;;;;;;;74.30;30.00;;;-2.60;99.90;;;;;;5090157;28;20211;-63
2021/12/31 01:19:46;;;;;;;76.80;31.43;;;-2.60;99.90;;;;;;5091382;28;20199;-62
2021/12/31 01:22:27;;;;;;;74.47;30.53;;;-2.70;99.90;;;;;;5091463;28;20249;-63
2021/12/31 01:24:53;;;;;;;84.20;32.60;;;-2.70;99.90;;;;;;5091682;28;20179;-62
2021/12/31 01:27:19;;;;;;;81.77;32.67;;;-2.80;99.90;;;;;;5090951;28;20225;-63
2021/12/31 01:29:45;;;;;;;77.80;30.80;;;-2.80;99.90;;;;;;5080763;28;20188;-62
2021/12/31 01:32:11;;;;;;;75.10;31.70;;;-2.90;99.90;;;;;;5071129;28;20185;-63
2021/12/31 01:34:38;;;;;;;66.73;29.57;;;-2.90;99.90;;;;;;5070930;28;20629;-63
2021/12/31 01:37:04;;;;;;;74.30;30.17;;;-2.90;99.90;;;;;;5070836;28;20201;-61
2021/12/31 01:39:30;;;;;;;70.73;27.43;;;-2.80;99.90;;;;;;5076733;28;20207;-62
2021/12/31 01:41:58;;;;;;;70.67;29.40;;;-2.60;99.90;;;;;;5092942;28;20179;-63
2021/12/31 01:44:33;;;;;;;64.80;27.67;;;-2.40;99.90;;;;;;5095035;28;20191;-62
2021/12/31 01:47:04;;;;;;;63.87;27.17;;;-2.30;99.90;;;;;;5095145;28;20642;-62
2021/12/31 01:49:35;;;;;;;73.40;29.87;;;-2.10;99.90;;;;;;5094877;28;20536;-62
2021/12/31 01:52:01;;;;;;;77.13;29.53;;;-2.00;99.90;;;;;;5093717;28;20180;-63
2021/12/31 01:54:29;;;;;;;68.37;28.87;;;-1.80;99.90;;;;;;5095034;28;20187;-62
2021/12/31 01:56:55;;;;;;;64.90;27.97;;;-1.70;99.90;;;;;;5094992;28;20201;-62
2021/12/31 01:59:22;;;;;;;57.77;25.20;;;-1.70;99.90;;;;;;5094549;28;20676;-61
2021/12/31 02:01:48;;;;;;;63.70;25.43;;;-1.50;99.90;;;;;;5094842;28;20172;-62
2021/12/31 02:04:14;;;;;;;56.63;24.73;;;-1.40;99.90;;;;;;5094409;28;20192;-62
2021/12/31 02:06:40;;;;;;;64.73;25.47;;;-1.30;99.90;;;;;;5093456;28;20189;-63
2021/12/31 02:09:06;;;;;;;59.20;25.40;;;-1.20;99.90;;;;;;5094142;28;20640;-61
2021/12/31 02:11:32;;;;;;;57.77;24.80;;;-1.10;99.90;;;;;;5094676;28;20656;-63
2021/12/31 02:14:01;;;;;;;60.77;26.57;;;-1.00;99.90;;;;;;5094580;28;20239;-63
2021/12/31 02:16:27;;;;;;;63.23;25.77;;;-1.00;99.90;;;;;;5094188;28;20671;-62
2021/12/31 02:18:52;;;;;;;60.50;25.70;;;-0.90;99.90;;;;;;5094317;28;20187;-62
2021/12/31 02:21:20;;;;;;;57.37;24.57;;;-0.90;99.90;;;;;;5094000;28;20189;-62
2021/12/31 02:23:51;;;;;;;64.47;24.60;;;-0.90;99.90;;;;;;5094653;28;20184;-62
2021/12/31 02:26:16;;;;;;;51.40;23.63;;;-0.80;99.90;;;;;;5094558;28;20291;-62
2021/12/31 02:28:42;;;;;;;60.67;23.50;;;-0.70;99.90;;;;;;5092360;28;20264;-62
2021/12/31 02:31:08;;;;;;;47.87;21.57;;;-0.60;99.90;;;;;;5073850;28;20240;-63
2021/12/31 02:33:34;;;;;;;47.50;21.17;;;-0.40;99.90;;;;;;5074230;28;20176;-63
2021/12/31 02:36:02;;;;;;;54.10;21.50;;;-0.30;99.90;;;;;;5073771;28;20237;-62
2021/12/31 02:38:28;;;;;;;52.67;22.37;;;-0.30;99.90;;;;;;5072718;28;20205;-62
2021/12/31 02:40:54;;;;;;;46.97;19.63;;;-0.20;99.90;;;;;;5091203;28;20577;-62
2021/12/31 02:43:20;;;;;;;36.10;14.37;;;-0.10;99.90;;;;;;5093850;28;20637;-62
2021/12/31 02:45:47;;;;;;;31.47;11.50;;;0.20;99.90;;;;;;5094395;28;20169;-62
2021/12/31 02:48:13;;;;;;;33.60;14.47;;;0.40;99.90;;;;;;5094106;28;20621;-62
2021/12/31 02:50:41;;;;;;;47.90;20.17;;;0.70;99.90;;;;;;5093771;28;20213;-62
2021/12/31 02:53:13;;;;;;;30.07;13.17;;;0.80;99.90;;;;;;5092946;28;20616;-62
2021/12/31 02:55:41;;;;;;;18.40;9.20;;;0.90;99.90;;;;;;5092709;28;20370;-61
2021/12/31 02:58:07;;;;;;;20.77;8.90;;;1.20;99.90;;;;;;5092468;28;20627;-61
2021/12/31 03:00:35;;;;;;;19.70;8.93;;;1.40;99.90;;;;;;5093914;28;20195;-61
2021/12/31 03:03:04;;;;;;;20.63;8.00;;;1.50;99.90;;;;;;5093578;28;20254;-60
2021/12/31 03:05:30;;;;;;;15.10;6.67;;;1.60;99.90;;;;;;5092974;28;20272;-60
2021/12/31 03:07:57;;;;;;;18.77;9.37;;;1.60;99.90;;;;;;5092416;28;20180;-60
2021/12/31 03:10:26;;;;;;;12.37;5.90;;;1.60;99.90;;;;;;5093196;28;20188;-60
2021/12/31 03:12:53;;;;;;;14.80;6.97;;;1.70;99.90;;;;;;5093130;28;20189;-60
2021/12/31 03:15:19;;;;;;;10.20;4.50;;;1.80;99.90;;;;;;5093036;28;20229;-60
2021/12/31 03:17:45;;;;;;;8.87;3.47;;;1.90;99.90;;;;;;5091868;28;20211;-60
2021/12/31 03:20:25;;;;;;;10.70;4.53;;;2.10;99.90;;;;;;5091258;28;20242;-59
2021/12/31 03:22:51;;;;;;;8.00;3.60;;;2.10;99.90;;;;;;5092842;28;20165;-60
2021/12/31 03:25:17;;;;;;;8.73;3.57;;;2.10;99.90;;;;;;5091303;28;20187;-60
2021/12/31 03:27:42;;;;;;;6.03;2.77;;;2.30;99.90;;;;;;5092702;28;20258;-60
2021/12/31 03:30:10;;;;;;;6.70;2.50;;;2.40;99.90;;;;;;5078992;28;20651;-59
2021/12/31 03:32:37;;;;;;;3.03;1.90;;;2.40;99.90;;;;;;5072080;28;20184;-60
2021/12/31 03:35:03;;;;;;;5.27;1.73;;;2.50;99.90;;;;;;5071771;28;20200;-62
2021/12/31 03:37:28;;;;;;;4.57;1.93;;;2.70;99.90;;;;;;5072106;28;20248;-62
2021/12/31 03:39:54;;;;;;;4.57;1.60;;;2.80;99.90;;;;;;5081163;28;20223;-62
2021/12/31 03:42:20;;;;;;;2.47;1.40;;;2.90;99.90;;;;;;5091127;28;20204;-63
2021/12/31 03:44:46;;;;;;;4.97;2.67;;;3.00;99.90;;;;;;5092742;28;20188;-64
2021/12/31 03:47:12;;;;;;;7.93;2.00;;;3.10;99.90;;;;;;5091873;28;20180;-61
2021/12/31 03:49:37;;;;;;;10.03;1.87;;;3.00;99.90;;;;;;5092335;28;20180;-59
2021/12/31 03:52:03;;;;;;;0.00;0.00;;;2.90;99.90;;;;;;5072058;28;20261;-59
2021/12/31 03:54:29;;;;;;;0.00;0.00;;;2.80;99.90;;;;;;5072253;28;20650;-60
2021/12/31 03:56:55;;;;;;;0.57;0.40;;;2.80;99.90;;;;;;5072358;28;20216;-59
2021/12/31 03:59:21;;;;;;;0.00;0.00;;;2.70;99.90;;;;;;5071893;28;20250;-58
2021/12/31 04:01:46;;;;;;;0.00;0.00;;;2.80;99.90;;;;;;5072122;28;20301;-59
2021/12/31 04:04:13;;;;;;;0.00;0.00;;;3.00;99.90;;;;;;5071568;28;20177;-60
2021/12/31 04:06:39;;;;;;;0.20;0.20;;;3.00;99.90;;;;;;5072149;28;20189;-59
2021/12/31 04:09:05;;;;;;;0.00;0.00;;;2.90;99.90;;;;;;5073865;28;20177;-61
2021/12/31 04:11:31;;;;;;;0.00;0.00;;;2.90;99.90;;;;;;5092828;28;20233;-59
2021/12/31 04:13:57;;;;;;;0.00;0.00;;;2.90;99.90;;;;;;5092182;28;20658;-59
2021/12/31 04:16:22;;;;;;;0.00;0.00;;;2.90;99.90;;;;;;5092257;28;20205;-58
2021/12/31 04:18:48;;;;;;;0.93;0.87;;;3.00;99.90;;;;;;5091997;28;20188;-60
2021/12/31 04:21:16;;;;;;;0.00;0.00;;;2.90;99.90;;;;;;5092138;28;20539;-60
2021/12/31 04:24:04;;;;;;;0.10;0.10;;;2.90;99.90;;;;;;5092425;28;20168;-60
2021/12/31 04:26:29;;;;;;;0.50;0.50;;;2.90;99.90;;;;;;5092872;28;20521;-59
2021/12/31 04:28:56;;;;;;;0.10;0.10;;;2.90;99.90;;;;;;5092427;28;20180;-60
2021/12/31 04:31:22;;;;;;;0.00;0.00;;;2.70;99.90;;;;;;5091692;28;20593;-60
2021/12/31 04:33:47;;;;;;;0.00;0.00;;;2.60;99.90;;;;;;5090505;28;20291;-60
2021/12/31 04:36:13;;;;;;;0.00;0.00;;;2.70;99.90;;;;;;5091959;28;20215;-60
2021/12/31 04:38:39;;;;;;;0.00;0.00;;;2.70;99.90;;;;;;5092370;28;20185;-60
2021/12/31 04:41:04;;;;;;;0.40;0.40;;;2.70;99.90;;;;;;5091484;28;20195;-60
2021/12/31 04:43:30;;;;;;;0.10;0.10;;;2.70;99.90;;;;;;5091764;28;20208;-60
2021/12/31 04:45:56;;;;;;;3.53;1.20;;;2.70;99.90;;;;;;5092203;28;20705;-61
2021/12/31 04:48:22;;;;;;;1.20;0.57;;;2.60;99.90;;;;;;5091255;28;20190;-59
2021/12/31 04:50:48;;;;;;;4.67;1.73;;;2.60;99.90;;;;;;5082280;28;20268;-60
2021/12/31 04:53:14;;;;;;;0.10;0.10;;;2.70;99.90;;;;;;5070155;28;20254;-60
2021/12/31 04:55:40;;;;;;;0.00;0.00;;;2.90;99.90;;;;;;5071949;28;20213;-61
2021/12/31 04:58:06;;;;;;;0.10;0.10;;;3.00;99.90;;;;;;5071692;28;20217;-61
2021/12/31 05:00:32;;;;;;;0.00;0.00;;;3.00;99.90;;;;;;5071952;28;20189;-61
2021/12/31 05:03:04;;;;;;;0.10;0.10;;;3.00;99.90;;;;;;5069048;28;20194;-61
2021/12/31 05:05:30;;;;;;;0.97;0.77;;;3.10;99.90;;;;;;5070583;28;20173;-61
2021/12/31 05:07:56;;;;;;;2.30;1.47;;;3.10;99.90;;;;;;5070316;28;20193;-59
2021/12/31 05:10:22;;;;;;;0.07;0.07;;;3.00;99.90;;;;;;5084226;28;20185;-59
2021/12/31 05:12:52;;;;;;;0.30;0.30;;;3.00;99.90;;;;;;5091379;28;20196;-60
2021/12/31 05:15:25;;;;;;;0.20;0.20;;;3.00;99.90;;;;;;5091887;28;20228;-60
2021/12/31 05:17:50;;;;;;;0.20;0.20;;;3.00;99.90;;;;;;5094321;28;20200;-60
2021/12/31 05:20:16;;;;;;;1.10;0.77;;;3.00;99.90;;;;;;5095437;28;20181;-61
2021/12/31 05:22:42;;;;;;;0.30;0.30;;;3.00;99.90;;;;;;5095625;28;20531;-60
2021/12/31 05:25:09;;;;;;;0.10;0.10;;;3.00;99.90;;;;;;5095732;28;20185;-61
2021/12/31 05:27:34;;;;;;;0.30;0.30;;;3.00;99.90;;;;;;5095716;28;20191;-60
2021/12/31 05:30:00;;;;;;;0.10;0.10;;;2.90;99.90;;;;;;5095341;28;20191;-62
2021/12/31 05:32:26;;;;;;;0.13;0.13;;;2.90;99.90;;;;;;5095476;28;20248;-61
2021/12/31 05:34:51;;;;;;;1.40;1.03;;;2.80;99.90;;;;;;5095406;28;20272;-61
2021/12/31 05:37:17;;;;;;;0.23;0.23;;;2.70;99.90;;;;;;5095076;28;20211;-63
2021/12/31 05:39:44;;;;;;;2.20;1.57;;;2.70;99.90;;;;;;5093877;28;20193;-61
2021/12/31 05:42:11;;;;;;;0.27;0.27;;;2.70;99.90;;;;;;5095149;28;20192;-62
2021/12/31 05:44:37;;;;;;;0.33;0.33;;;2.60;99.90;;;;;;5095452;28;20196;-61
2021/12/31 05:47:03;;;;;;;0.30;0.30;;;2.50;99.90;;;;;;5095178;28;20184;-62
2021/12/31 05:49:29;;;;;;;0.57;0.57;;;2.50;99.90;;;;;;5094701;28;20189;-61
2021/12/31 05:51:55;;;;;;;0.10;0.10;;;2.40;99.90;;;;;;5074647;28;20212;-61
2021/12/31 05:54:21;;;;;;;0.10;0.10;;;2.40;99.90;;;;;;5073255;28;20177;-61
2021/12/31 05:56:47;;;;;;;0.77;0.63;;;2.40;99.90;;;;;;5074392;28;20548;-61
2021/12/31 05:59:13;;;;;;;0.00;0.00;;;2.50;99.90;;;;;;5074370;28;20182;-61
2021/12/31 06:01:39;;;;;;;0.70;0.70;;;2.60;99.90;;;;;;5074143;28;20540;-61
2021/12/31 06:04:06;;;;;;;0.20;0.20;;;2.60;99.90;;;;;;5074093;28;20257;-61
2021/12/31 06:06:32;;;;;;;0.10;0.10;;;2.90;99.90;;;;;;5074675;28;20183;-61
2021/12/31 06:08:57;;;;;;;0.40;0.40;;;3.10;99.90;;;;;;5075122;28;20181;-62
2021/12/31 06:11:23;;;;;;;14.63;0.53;;;3.30;99.90;;;;;;5094121;28;20184;-60
2021/12/31 06:13:55;;;;;;;0.30;0.30;;;3.40;99.90;;;;;;5094541;28;20338;-58
2021/12/31 06:16:21;;;;;;;0.30;0.30;;;3.40;99.90;;;;;;5094453;28;20283;-59
2021/12/31 06:18:47;;;;;;;0.27;0.27;;;3.50;99.90;;;;;;5093878;28;20231;-59
2021/12/31 06:21:12;;;;;;;0.30;0.30;;;3.50;99.90;;;;;;5092714;28;20277;-59
2021/12/31 06:23:38;;;;;;;0.63;0.60;;;3.60;99.90;;;;;;5093699;28;20181;-61
2021/12/31 06:26:04;;;;;;;0.97;0.97;;;3.60;99.90;;;;;;5094309;28;20197;-61
2021/12/31 06:28:30;;;;;;;0.30;0.30;;;3.50;99.90;;;;;;5093124;28;20188;-59
2021/12/31 06:30:55;;;;;;;0.10;0.10;;;3.50;99.90;;;;;;5094011;28;20181;-59
2021/12/31 06:33:21;;;;;;;0.20;0.20;;;3.60;99.90;;;;;;5093419;28;20260;-57
2021/12/31 06:35:47;;;;;;;1.00;0.97;;;3.70;99.90;;;;;;5094109;28;20201;-59
2021/12/31 06:38:12;;;;;;;0.27;0.20;;;3.80;99.90;;;;;;5094431;28;20187;-59
2021/12/31 06:40:39;;;;;;;0.00;0.00;;;3.70;99.90;;;;;;5093916;28;20193;-59
2021/12/31 06:43:05;;;;;;;0.13;0.13;;;3.80;99.90;;;;;;5093951;28;20182;-59
2021/12/31 06:45:30;;;;;;;1.13;1.10;;;3.80;99.90;;;;;;5093935;28;20237;-62
2021/12/31 06:47:56;;;;;;;0.70;0.70;;;3.80;99.90;;;;;;5093684;28;20186;-60
2021/12/31 06:50:22;;;;;;;1.53;1.43;;;3.80;99.90;;;;;;5087363;28;20178;-60
2021/12/31 06:52:48;;;;;;;1.63;1.07;;;3.70;99.90;;;;;;5073239;28;20194;-61
2021/12/31 06:55:14;;;;;;;0.73;0.73;;;3.70;99.90;;;;;;5073267;28;20205;-61
2021/12/31 06:57:40;;;;;;;0.43;0.43;;;3.60;99.90;;;;;;5072640;28;20228;-59
2021/12/31 07:00:08;;;;;;;0.67;0.67;;;3.60;99.90;;;;;;5073452;28;20270;-60
2021/12/31 07:02:33;;;;;;;1.07;0.63;;;3.70;99.90;;;;;;5073430;28;20227;-60
2021/12/31 07:04:59;;;;;;;0.87;0.87;;;3.80;99.90;;;;;;5073803;28;20278;-61
2021/12/31 07:07:25;;;;;;;1.60;1.50;;;3.90;99.90;;;;;;5072942;28;20221;-59
2021/12/31 07:09:51;;;;;;;0.77;0.60;;;4.00;99.90;;;;;;5081843;28;20584;-60
2021/12/31 07:12:16;;;;;;;1.27;1.17;;;4.00;99.90;;;;;;5093236;28;20248;-61
2021/12/31 07:14:42;;;;;;;0.70;0.60;;;4.00;99.90;;;;;;5093724;28;20232;-61
2021/12/31 07:17:08;;;;;;;0.13;0.13;;;4.10;99.90;;;;;;5092612;28;20220;-61
2021/12/31 07:19:34;;;;;;;1.63;0.67;;;4.10;99.90;;;;;;5093393;28;20189;-60
2021/12/31 07:22:00;;;;;;;0.57;0.57;;;4.10;99.90;;;;;;5092941;28;20232;-60
2021/12/31 07:24:26;;;;;;;1.30;1.13;;;4.20;99.90;;;;;;5092761;28;20245;-59
2021/12/31 07:26:52;;;;;;;1.10;1.00;;;4.20;99.90;;;;;;5093042;28;20198;-60
2021/12/31 07:29:18;;;;;;;0.63;0.63;;;4.30;99.90;;;;;;5092656;28;20213;-60
2021/12/31 07:31:44;;;;;;;1.40;1.03;;;4.40;99.90;;;;;;5092849;28;20189;-59
2021/12/31 07:34:10;;;;;;;14.23;3.57;;;4.50;99.90;;;;;;5092995;28;20183;-59
2021/12/31 07:36:35;;;;;;;1.33;1.23;;;4.60;99.90;;;;;;5092762;28;20263;-59
2021/12/31 07:39:06;;;;;;;0.57;0.57;;;4.60;99.90;;;;;;5092506;28;20636;-60
2021/12/31 07:41:32;;;;;;;0.87;0.87;;;4.70;99.90;;;;;;5092707;28;20176;-60
2021/12/31 07:43:58;;;;;;;2.20;1.83;;;4.80;99.90;;;;;;5093086;28;20220;-61
2021/12/31 07:46:24;;;;;;;7.73;2.77;;;4.90;99.90;;;;;;5092373;28;20262;-60
2021/12/31 07:48:50;;;;;;;1.17;1.07;;;5.00;99.90;;;;;;5090725;28;20193;-60
2021/12/31 07:51:16;;;;;;;10.63;4.07;;;5.10;99.90;;;;;;5078712;28;20177;-61
2021/12/31 07:53:42;;;;;;;3.17;2.00;;;5.20;99.90;;;;;;5072044;28;20174;-61
2021/12/31 07:56:07;;;;;;;2.17;1.03;;;5.30;99.90;;;;;;5072257;28;20274;-61
2021/12/31 07:58:33;;;;;;;0.93;0.93;;;5.40;99.90;;;;;;5054357;28;20193;-61
2021/12/31 08:00:59;;;;;;;0.43;0.43;;;5.50;99.90;;;;;;5072120;28;20177;-61
2021/12/31 08:03:24;;;;;;;0.43;0.43;;;5.50;99.90;;;;;;5071319;28;20238;-61
2021/12/31 08:05:50;;;;;;;4.30;1.57;;;5.60;99.90;;;;;;5071503;28;20189;-62
2021/12/31 08:08:16;;;;;;;1.10;1.03;;;5.80;99.90;;;;;;5070064;28;20192;-61
2021/12/31 08:10:42;;;;;;;1.57;1.40;;;5.80;99.90;;;;;;5087109;28;20629;-60
2021/12/31 08:13:08;;;;;;;7.13;0.80;;;5.90;99.90;;;;;;5091516;28;20731;-61
2021/12/31 08:15:33;;;;;;;1.77;1.67;;;6.00;99.90;;;;;;5092321;28;20588;-62
2021/12/31 08:17:59;;;;;;;2.33;0.63;;;6.10;99.90;;;;;;5091496;28;20228;-62
2021/12/31 08:20:26;;;;;;;1.63;1.53;;;6.10;99.90;;;;;;5091210;28;20211;-62
2021/12/31 08:22:53;;;;;;;2.23;1.73;;;6.30;99.90;;;;;;5091849;28;20176;-62
2021/12/31 08:25:19;;;;;;;1.50;1.40;;;6.30;99.90;;;;;;5090686;28;20214;-61
2021/12/31 08:27:45;;;;;;;14.63;3.73;;;6.50;99.90;;;;;;5073592;28;20637;-62
2021/12/31 08:30:11;;;;;;;1.40;1.30;;;6.50;99.90;;;;;;5091384;28;20182;-61
2021/12/31 08:32:38;;;;;;;2.03;1.40;;;6.70;99.90;;;;;;5091179;28;20244;-62
2021/12/31 08:35:05;;;;;;;5.47;2.83;;;6.90;99.90;;;;;;5090325;28;20190;-63
2021/12/31 08:37:31;;;;;;;2.70;2.27;;;7.00;99.90;;;;;;5091758;28;20300;-62
2021/12/31 08:39:58;;;;;;;4.77;3.03;;;7.20;99.90;;;;;;5091855;28;20552;-62
2021/12/31 08:42:25;;;;;;;3.73;2.87;;;7.30;99.90;;;;;;5089853;28;20808;-63
2021/12/31 08:44:51;;;;;;;1.17;1.10;;;7.40;99.90;;;;;;5091873;28;20192;-64
2021/12/31 08:47:16;;;;;;;3.37;1.27;;;7.40;99.90;;;;;;5090975;28;20196;-63
2021/12/31 08:49:43;;;;;;;4.13;1.70;;;7.50;99.90;;;;;;5089661;28;20705;-63
2021/12/31 08:52:08;;;;;;;1.60;1.50;;;7.40;99.90;;;;;;5068938;28;20178;-63
2021/12/31 08:54:34;;;;;;;5.93;1.60;;;7.30;99.90;;;;;;5070859;28;20656;-63
2021/12/31 08:57:01;;;;;;;3.80;2.60;;;7.30;99.90;;;;;;5070601;28;20719;-64
2021/12/31 08:59:27;;;;;;;4.13;2.53;;;7.20;99.90;;;;;;5070433;28;20594;-63
2021/12/31 09:01:53;;;;;;;1.53;1.03;;;7.20;99.90;;;;;;5070461;28;20296;-63
2021/12/31 09:04:18;;;;;;;1.03;1.00;;;7.10;99.90;;;;;;5071105;28;20610;-64
2021/12/31 09:06:44;;;;;;;3.63;2.57;;;7.20;99.90;;;;;;5070947;28;20184;-63
2021/12/31 09:09:10;;;;;;;1.80;1.53;;;7.40;99.90;;;;;;5073043;28;20189;-63
2021/12/31 09:11:36;;;;;;;5.97;2.50;;;7.60;99.90;;;;;;5091405;28;20536;-64
2021/12/31 09:14:02;;;;;;;2.97;2.77;;;7.70;99.90;;;;;;5090970;28;20237;-64
2021/12/31 09:16:28;;;;;;;2.07;1.80;;;7.70;99.90;;;;;;5091017;28;20219;-64
2021/12/31 09:18:54;;;;;;;1.50;1.40;;;7.60;99.90;;;;;;5091184;28;20218;-63
2021/12/31 09:21:22;;;;;;;0.73;0.67;;;7.60;99.90;;;;;;5090961;28;20196;-63
2021/12/31 09:23:48;;;;;;;2.53;2.33;;;7.60;99.90;;;;;;5091049;28;20280;-63
2021/12/31 09:26:15;;;;;;;3.97;2.53;;;7.70;99.90;;;;;;5090454;28;20656;-63
2021/12/31 09:28:41;;;;;;;2.43;2.20;;;7.80;99.90;;;;;;5090733;28;20638;-65
2021/12/31 09:31:08;;;;;;;1.33;1.23;;;7.90;99.90;;;;;;5090494;28;20208;-64
2021/12/31 09:33:35;;;;;;;3.30;1.07;;;7.90;99.90;;;;;;5090927;28;20184;-63
2021/12/31 09:36:01;;;;;;;3.37;2.47;;;8.10;99.90;;;;;;5090557;28;20184;-64
2021/12/31 09:38:26;;;;;;;2.10;1.50;;;8.20;99.90;;;;;;5090742;28;20508;-64
2021/12/31 09:40:54;;;;;;;2.20;0.70;;;8.30;99.90;;;;;;5090206;28;20655;-64
2021/12/31 09:43:20;;;;;;;2.83;1.53;;;8.30;99.90;;;;;;5090187;28;20183;-64
2021/12/31 09:45:49;;;;;;;3.00;1.50;;;8.10;99.90;;;;;;5091103;28;20302;-64
2021/12/31 09:48:19;;;;;;;2.23;1.43;;;7.90;99.90;;;;;;5090865;28;20349;-63
2021/12/31 09:50:49;;;;;;;2.40;1.93;;;7.80;99.90;;;;;;5080018;28;20267;-63
2021/12/31 09:53:17;;;;;;;2.60;2.03;;;7.50;99.90;;;;;;5070531;28;20188;-64
2021/12/31 09:55:49;;;;;;;0.87;0.87;;;7.40;99.90;;;;;;5070449;28;20195;-64
2021/12/31 09:58:18;;;;;;;1.33;1.00;;;7.30;99.90;;;;;;5070330;28;20210;-64
2021/12/31 10:00:47;;;;;;;2.63;1.43;;;7.10;99.90;;;;;;5070219;28;20182;-65
2021/12/31 10:03:28;;;;;;;1.87;1.77;;;7.10;99.90;;;;;;5071503;28;20175;-64
2021/12/31 10:06:11;;;;;;;1.13;0.57;;;7.20;99.90;;;;;;5074213;28;20244;-65
2021/12/31 10:08:47;;;;;;;2.10;1.30;;;7.20;99.90;;;;;;5074125;28;20227;-63
2021/12/31 10:11:18;;;;;;;0.53;0.53;;;7.40;99.90;;;;;;5092739;28;20522;-63
2021/12/31 10:13:51;;;;;;;0.50;0.50;;;7.40;99.90;;;;;;5093298;28;20278;-63
2021/12/31 10:16:24;;;;;;;5.83;1.80;;;7.20;99.90;;;;;;5093622;28;20251;-64
2021/12/31 10:19:04;;;;;;;0.50;0.50;;;7.10;99.90;;;;;;5094325;28;20190;-64
2021/12/31 10:21:38;;;;;;;2.00;1.27;;;7.10;99.90;;;;;;5094122;28;20237;-63
2021/12/31 10:24:23;;;;;;;0.63;0.60;;;7.20;99.90;;;;;;5093794;28;20174;-65
2021/12/31 10:26:54;;;;;;;1.17;0.67;;;7.20;99.90;;;;;;5093840;28;20544;-62
2021/12/31 10:29:21;;;;;;;0.80;0.80;;;6.90;99.90;;;;;;5093973;28;20334;-63
2021/12/31 10:31:53;;;;;;;5.83;0.83;;;6.80;99.90;;;;;;5093823;28;20199;-63
2021/12/31 10:34:29;;;;;;;2.77;2.57;;;6.80;99.90;;;;;;5093436;28;20167;-62
2021/12/31 10:37:17;;;;;;;2.37;1.67;;;6.80;99.90;;;;;;5094201;28;20198;-64
2021/12/31 10:39:43;;;;;;;1.20;1.10;;;6.90;99.90;;;;;;5094091;28;20193;-63
2021/12/31 10:42:11;;;;;;;2.27;1.87;;;6.90;99.90;;;;;;5093421;28;20190;-64
2021/12/31 10:44:47;;;;;;;0.30;0.30;;;6.80;99.90;;;;;;5093905;28;20180;-63
2021/12/31 10:47:29;;;;;;;1.10;0.83;;;6.80;99.90;;;;;;5093194;28;20268;-64
2021/12/31 10:50:03;;;;;;;2.83;1.20;;;6.80;99.90;;;;;;5091278;28;20180;-65
2021/12/31 10:52:36;;;;;;;0.40;0.40;;;6.80;99.90;;;;;;5073510;28;20563;-64
2021/12/31 10:55:29;;;;;;;2.70;1.40;;;6.80;99.90;;;;;;5072988;28;20252;-65
2021/12/31 10:58:05;;;;;;;0.43;0.40;;;6.90;99.90;;;;;;5071296;28;20626;-64
2021/12/31 11:00:37;;;;;;;0.87;0.87;;;6.80;99.90;;;;;;5073415;28;20198;-62
2021/12/31 11:03:05;;;;;;;1.37;1.27;;;6.90;99.90;;;;;;5072056;28;20171;-61
2021/12/31 11:05:30;;;;;;;2.60;0.87;;;6.90;99.90;;;;;;5071828;28;20198;-63
2021/12/31 11:08:00;;;;;;;0.60;0.60;;;6.80;99.90;;;;;;5072753;28;20177;-62
2021/12/31 11:10:28;;;;;;;3.17;2.30;;;6.80;99.90;;;;;;5085882;28;20330;-65
2021/12/31 11:12:55;;;;;;;4.10;2.23;;;6.90;99.90;;;;;;5092755;28;20188;-62
2021/12/31 11:15:21;;;;;;;4.30;1.77;;;6.90;99.90;;;;;;5092184;28;20233;-62
2021/12/31 11:17:52;;;;;;;1.93;1.07;;;6.90;99.90;;;;;;5093284;28;20239;-62
2021/12/31 11:20:22;;;;;;;3.10;2.13;;;6.80;99.90;;;;;;5093078;28;20218;-62
2021/12/31 11:22:48;;;;;;;3.67;1.90;;;6.70;99.90;;;;;;5093267;28;20157;-62
2021/12/31 11:25:26;;;;;;;0.60;0.60;;;6.70;99.90;;;;;;5092720;28;20209;-61
2021/12/31 11:27:54;;;;;;;3.50;2.67;;;6.60;99.90;;;;;;5092906;28;20229;-63
2021/12/31 11:30:27;;;;;;;1.23;1.07;;;6.60;99.90;;;;;;5092086;28;20215;-61
2021/12/31 11:32:55;;;;;;;3.27;2.97;;;6.60;99.90;;;;;;5092748;28;20270;-61
2021/12/31 11:35:32;;;;;;;6.20;2.20;;;6.60;99.90;;;;;;5092390;28;20196;-62
2021/12/31 11:37:59;;;;;;;2.20;1.63;;;6.60;99.90;;;;;;5092449;28;20200;-61
2021/12/31 11:40:36;;;;;;;0.10;0.10;;;6.70;99.90;;;;;;5092292;28;20295;-61
2021/12/31 11:43:22;;;;;;;3.27;1.27;;;6.80;99.90;;;;;;5090895;28;20185;-61
2021/12/31 11:46:14;;;;;;;12.43;2.10;;;6.80;99.90;;;;;;5092556;28;20181;-61
2021/12/31 11:48:43;;;;;;;2.17;1.83;;;6.90;99.90;;;;;;5092456;28;20207;-62
2021/12/31 11:51:20;;;;;;;7.93;1.80;;;7.00;99.90;;;;;;5079016;28;20258;-62
2021/12/31 11:53:58;;;;;;;0.93;0.70;;;7.00;99.90;;;;;;5072089;28;20196;-61
2021/12/31 11:56:36;;;;;;;2.10;1.23;;;6.90;99.90;;;;;;5071345;28;20205;-60
2021/12/31 11:59:07;;;;;;;2.43;1.73;;;6.90;99.90;;;;;;5071699;28;20675;-61
2021/12/31 12:01:52;;;;;;;1.47;1.37;;;6.90;99.90;;;;;;5071127;28;20183;-61
2021/12/31 12:04:38;;;;;;;17.50;2.53;;;7.00;99.90;;;;;;5071611;28;20237;-62
2021/12/31 12:07:24;;;;;;;10.20;3.57;;;7.00;99.90;;;;;;5070777;28;20217;-60
2021/12/31 12:09:50;;;;;;;1.60;1.50;;;7.00;99.90;;;;;;5080016;28;20265;-61
2021/12/31 12:12:21;;;;;;;1.10;1.00;;;6.90;99.90;;;;;;5092029;28;20269;-61
2021/12/31 12:14:49;;;;;;;1.00;0.97;;;6.90;99.90;;;;;;5091455;28;20225;-62
2021/12/31 12:17:28;;;;;;;1.40;1.30;;;6.80;99.90;;;;;;5091947;28;20289;-60
2021/12/31 12:19:57;;;;;;;1.40;1.30;;;6.80;99.90;;;;;;5092235;28;20275;-61
2021/12/31 12:22:54;;;;;;;0.77;0.77;;;6.90;99.90;;;;;;5091894;28;20275;-63
2021/12/31 12:25:26;;;;;;;7.60;2.93;;;6.80;99.90;;;;;;5086663;28;20194;-61
2021/12/31 12:28:13;;;;;;;2.23;1.30;;;6.80;99.90;;;;;;5091669;28;20227;-62
2021/12/31 12:30:48;;;;;;;1.43;0.70;;;6.70;99.90;;;;;;5091090;28;20204;-62
2021/12/31 12:33:20;;;;;;;2.93;1.40;;;6.60;99.90;;;;;;5091508;28;20212;-60
2021/12/31 12:35:48;;;;;;;3.03;1.23;;;6.70;99.90;;;;;;5091576;28;20162;-61
2021/12/31 12:38:19;;;;;;;2.27;1.23;;;6.70;99.90;;;;;;5091573;28;20241;-63
2021/12/31 12:40:56;;;;;;;5.57;2.17;;;6.70;99.90;;;;;;5091643;28;20189;-62
2021/12/31 12:43:24;;;;;;;3.80;1.53;;;6.70;99.90;;;;;;5091478;28;20713;-62
2021/12/31 12:46:05;;;;;;;16.23;2.70;;;6.70;99.90;;;;;;5091332;28;20265;-62
2021/12/31 12:48:57;;;;;;;4.10;1.90;;;6.80;99.90;;;;;;5091570;28;20305;-62
2021/12/31 12:51:30;;;;;;;8.53;2.70;;;6.70;99.90;;;;;;5076154;28;20598;-62
2021/12/31 12:53:57;;;;;;;1.33;1.23;;;6.60;99.90;;;;;;5071089;28;20178;-62
2021/12/31 12:56:23;;;;;;;6.60;1.63;;;6.60;99.90;;;;;;5070729;28;20197;-62